sensor_id;sensor_type;location;lat;lon;timestamp;temperature;humidity
30148;DHT22;16960;49.404;8.248;2024-01-15T00:01:47;19.70;29.40
30148;DHT22;16960;49.404;8.248;2024-01-15T00:04:14;19.70;29.30
30148;DHT22;16960;49.404;8.248;2024-01-15T00:06:40;19.70;29.50
30148;DHT22;16960;49.404;8.248;2024-01-15T00:09:07;19.70;29.50
30148;DHT22;16960;49.404;8.248;2024-01-15T00:11:35;19.70;29.40
30148;DHT22;16960;49.404;8.248;2024-01-15T00:14:02;19.70;29.40
30148;DHT22;16960;49.404;8.248;2024-01-15T00:16:29;19.70;29.40
30148;DHT22;16960;49.404;8.248;2024-01-15T00:19:11;19.70;30.00
30148;DHT22;16960;49.404;8.248;2024-01-15T00:21:37;19.70;29.40
30148;DHT22;16960;49.404;8.248;2024-01-15T00:24:04;19.70;29.50
30148;DHT22;16960;49.404;8.248;2024-01-15T00:26:31;19.60;29.30
30148;DHT22;16960;49.404;8.248;2024-01-15T00:28:58;19.60;29.10
30148;DHT22;16960;49.404;8.248;2024-01-15T00:31:25;19.60;29.20
30148;DHT22;16960;49.404;8.248;2024-01-15T00:33:52;19.60;29.30
30148;DHT22;16960;49.404;8.248;2024-01-15T00:36:20;19.60;29.00
30148;DHT22;16960;49.404;8.248;2024-01-15T00:38:47;19.60;29.00
30148;DHT22;16960;49.404;8.248;2024-01-15T00:41:14;19.60;29.00
30148;DHT22;16960;49.404;8.248;2024-01-15T00:43:42;19.60;28.90
30148;DHT22;16960;49.404;8.248;2024-01-15T00:46:08;19.50;29.00
30148;DHT22;16960;49.404;8.248;2024-01-15T00:48:35;19.50;28.90
30148;DHT22;16960;49.404;8.248;2024-01-15T00:51:03;19.50;28.90
30148;DHT22;16960;49.404;8.248;2024-01-15T00:53:32;19.50;28.80
30148;DHT22;16960;49.404;8.248;2024-01-15T00:55:58;19.50;28.90
30148;DHT22;16960;49.404;8.248;2024-01-15T00:58:25;19.50;29.00
30148;DHT22;16960;49.404;8.248;2024-01-15T01:00:52;19.50;28.90
30148;DHT22;16960;49.404;8.248;2024-01-15T01:03:19;19.40;28.90
30148;DHT22;16960;49.404;8.248;2024-01-15T01:05:48;19.40;29.10
30148;DHT22;16960;49.404;8.248;2024-01-15T01:08:15;19.40;29.00
30148;DHT22;16960;49.404;8.248;2024-01-15T01:10:43;19.40;29.20
30148;DHT22;16960;49.404;8.248;2024-01-15T01:13:10;19.40;28.90
30148;DHT22;16960;49.404;8.248;2024-01-15T01:15:37;19.40;28.90
30148;DHT22;16960;49.404;8.248;2024-01-15T01:18:04;19.40;28.90
30148;DHT22;16960;49.404;8.248;2024-01-15T01:20:31;19.40;28.90
30148;DHT22;16960;49.404;8.248;2024-01-15T01:22:58;19.40;29.00
30148;DHT22;16960;49.404;8.248;2024-01-15T01:25:25;19.40;29.00
30148;DHT22;16960;49.404;8.248;2024-01-15T01:27:53;19.40;29.10
30148;DHT22;16960;49.404;8.248;2024-01-15T01:30:20;19.40;29.20
30148;DHT22;16960;49.404;8.248;2024-01-15T01:32:47;19.40;29.30
30148;DHT22;16960;49.404;8.248;2024-01-15T01:35:14;19.40;29.40
30148;DHT22;16960;49.404;8.248;2024-01-15T01:37:41;19.40;29.40
30148;DHT22;16960;49.404;8.248;2024-01-15T01:40:09;19.40;29.50
30148;DHT22;16960;49.404;8.248;2024-01-15T01:42:36;19.40;29.50
30148;DHT22;16960;49.404;8.248;2024-01-15T01:45:05;19.40;29.50
30148;DHT22;16960;49.404;8.248;2024-01-15T01:47:32;19.40;29.50
30148;DHT22;16960;49.404;8.248;2024-01-15T01:49:59;19.40;29.50
30148;DHT22;16960;49.404;8.248;2024-01-15T01:52:26;19.40;29.60
30148;DHT22;16960;49.404;8.248;2024-01-15T01:54:54;19.40;29.70
30148;DHT22;16960;49.404;8.248;2024-01-15T01:57:21;19.40;29.70
30148;DHT22;16960;49.404;8.248;2024-01-15T01:59:48;19.40;29.70
30148;DHT22;16960;49.404;8.248;2024-01-15T02:02:16;19.40;29.80
30148;DHT22;16960;49.404;8.248;2024-01-15T02:04:43;19.50;29.90
30148;DHT22;16960;49.404;8.248;2024-01-15T02:07:11;19.40;29.90
30148;DHT22;16960;49.404;8.248;2024-01-15T02:09:38;19.40;29.90
30148;DHT22;16960;49.404;8.248;2024-01-15T02:12:06;19.50;30.00
30148;DHT22;16960;49.404;8.248;2024-01-15T02:14:33;19.50;30.00
30148;DHT22;16960;49.404;8.248;2024-01-15T02:17:00;19.50;30.00
30148;DHT22;16960;49.404;8.248;2024-01-15T02:19:28;19.50;30.10
30148;DHT22;16960;49.404;8.248;2024-01-15T02:21:55;19.50;30.10
30148;DHT22;16960;49.404;8.248;2024-01-15T02:24:24;19.50;30.00
30148;DHT22;16960;49.404;8.248;2024-01-15T02:26:51;19.50;29.80
30148;DHT22;16960;49.404;8.248;2024-01-15T02:29:18;19.50;29.70
30148;DHT22;16960;49.404;8.248;2024-01-15T02:31:45;19.50;29.40
30148;DHT22;16960;49.404;8.248;2024-01-15T02:34:12;19.50;29.30
30148;DHT22;16960;49.404;8.248;2024-01-15T02:36:39;19.50;29.20
30148;DHT22;16960;49.404;8.248;2024-01-15T02:39:06;19.50;29.80
30148;DHT22;16960;49.404;8.248;2024-01-15T02:41:35;19.50;29.00
30148;DHT22;16960;49.404;8.248;2024-01-15T02:44:02;19.50;29.10
30148;DHT22;16960;49.404;8.248;2024-01-15T02:46:29;19.40;28.70
30148;DHT22;16960;49.404;8.248;2024-01-15T02:48:56;19.40;28.60
30148;DHT22;16960;49.404;8.248;2024-01-15T02:51:23;19.40;28.50
30148;DHT22;16960;49.404;8.248;2024-01-15T02:53:50;19.30;28.40
30148;DHT22;16960;49.404;8.248;2024-01-15T02:56:17;19.30;28.40
30148;DHT22;16960;49.404;8.248;2024-01-15T02:58:45;19.30;28.30
30148;DHT22;16960;49.404;8.248;2024-01-15T03:01:12;19.30;28.10
30148;DHT22;16960;49.404;8.248;2024-01-15T03:03:40;19.20;28.00
30148;DHT22;16960;49.404;8.248;2024-01-15T03:06:06;19.20;28.10
30148;DHT22;16960;49.404;8.248;2024-01-15T03:08:33;19.20;28.00
30148;DHT22;16960;49.404;8.248;2024-01-15T03:11:01;19.20;28.00
30148;DHT22;16960;49.404;8.248;2024-01-15T03:13:28;19.10;27.90
30148;DHT22;16960;49.404;8.248;2024-01-15T03:15:56;19.10;28.00
30148;DHT22;16960;49.404;8.248;2024-01-15T03:18:23;19.10;27.80
30148;DHT22;16960;49.404;8.248;2024-01-15T03:20:50;19.10;27.90
30148;DHT22;16960;49.404;8.248;2024-01-15T03:23:17;19.00;27.80
30148;DHT22;16960;49.404;8.248;2024-01-15T03:25:44;19.00;27.90
30148;DHT22;16960;49.404;8.248;2024-01-15T03:28:11;19.00;28.10
30148;DHT22;16960;49.404;8.248;2024-01-15T03:30:38;18.90;28.30
30148;DHT22;16960;49.404;8.248;2024-01-15T03:33:06;19.00;28.40
30148;DHT22;16960;49.404;8.248;2024-01-15T03:35:33;18.90;28.60
30148;DHT22;16960;49.404;8.248;2024-01-15T03:38:00;19.00;28.80
30148;DHT22;16960;49.404;8.248;2024-01-15T03:40:27;19.00;28.90
30148;DHT22;16960;49.404;8.248;2024-01-15T03:42:54;19.00;29.00
30148;DHT22;16960;49.404;8.248;2024-01-15T03:45:20;19.00;29.10
30148;DHT22;16960;49.404;8.248;2024-01-15T03:47:47;19.00;29.20
30148;DHT22;16960;49.404;8.248;2024-01-15T03:50:16;19.00;29.20
30148;DHT22;16960;49.404;8.248;2024-01-15T03:52:42;19.00;29.30
30148;DHT22;16960;49.404;8.248;2024-01-15T03:55:09;19.00;29.40
30148;DHT22;16960;49.404;8.248;2024-01-15T03:57:36;19.00;29.50
30148;DHT22;16960;49.404;8.248;2024-01-15T04:00:04;19.00;29.60
30148;DHT22;16960;49.404;8.248;2024-01-15T04:02:31;19.10;29.70
30148;DHT22;16960;49.404;8.248;2024-01-15T04:04:58;19.10;29.70
30148;DHT22;16960;49.404;8.248;2024-01-15T04:07:27;19.10;29.80
30148;DHT22;16960;49.404;8.248;2024-01-15T04:09:53;19.10;29.80
30148;DHT22;16960;49.404;8.248;2024-01-15T04:12:20;19.20;29.80
30148;DHT22;16960;49.404;8.248;2024-01-15T04:14:47;19.20;29.80
30148;DHT22;16960;49.404;8.248;2024-01-15T04:17:14;19.20;29.80
30148;DHT22;16960;49.404;8.248;2024-01-15T04:19:43;19.20;29.90
30148;DHT22;16960;49.404;8.248;2024-01-15T04:22:10;19.20;29.90
30148;DHT22;16960;49.404;8.248;2024-01-15T04:24:39;19.20;30.00
30148;DHT22;16960;49.404;8.248;2024-01-15T04:27:06;19.30;30.00
30148;DHT22;16960;49.404;8.248;2024-01-15T04:29:33;19.30;30.60
30148;DHT22;16960;49.404;8.248;2024-01-15T04:32:00;19.30;30.00
30148;DHT22;16960;49.404;8.248;2024-01-15T04:34:27;19.30;30.00
30148;DHT22;16960;49.404;8.248;2024-01-15T04:36:54;19.30;30.00
30148;DHT22;16960;49.404;8.248;2024-01-15T04:39:21;19.30;30.00
30148;DHT22;16960;49.404;8.248;2024-01-15T04:41:49;19.40;30.00
30148;DHT22;16960;49.404;8.248;2024-01-15T04:44:16;19.40;30.00
30148;DHT22;16960;49.404;8.248;2024-01-15T04:46:43;19.30;30.00
30148;DHT22;16960;49.404;8.248;2024-01-15T04:49:10;19.40;30.00
30148;DHT22;16960;49.404;8.248;2024-01-15T04:51:38;19.40;30.00
30148;DHT22;16960;49.404;8.248;2024-01-15T04:54:04;19.40;30.00
30148;DHT22;16960;49.404;8.248;2024-01-15T04:56:31;19.40;29.90
30148;DHT22;16960;49.404;8.248;2024-01-15T04:59:00;19.40;29.80
30148;DHT22;16960;49.404;8.248;2024-01-15T05:01:30;19.40;29.70
30148;DHT22;16960;49.404;8.248;2024-01-15T05:03:57;19.40;29.70
30148;DHT22;16960;49.404;8.248;2024-01-15T05:06:24;19.40;29.80
30148;DHT22;16960;49.404;8.248;2024-01-15T05:08:51;19.40;29.80
30148;DHT22;16960;49.404;8.248;2024-01-15T05:11:18;19.40;29.90
30148;DHT22;16960;49.404;8.248;2024-01-15T05:13:45;19.40;30.00
30148;DHT22;16960;49.404;8.248;2024-01-15T05:16:13;19.40;30.00
30148;DHT22;16960;49.404;8.248;2024-01-15T05:18:40;19.50;30.20
30148;DHT22;16960;49.404;8.248;2024-01-15T05:21:08;19.50;30.30
30148;DHT22;16960;49.404;8.248;2024-01-15T05:23:35;19.50;30.30
30148;DHT22;16960;49.404;8.248;2024-01-15T05:26:02;19.50;30.30
30148;DHT22;16960;49.404;8.248;2024-01-15T05:28:29;19.60;30.30
30148;DHT22;16960;49.404;8.248;2024-01-15T05:30:56;19.60;30.30
30148;DHT22;16960;49.404;8.248;2024-01-15T05:33:25;19.60;30.30
30148;DHT22;16960;49.404;8.248;2024-01-15T05:35:51;19.60;30.30
30148;DHT22;16960;49.404;8.248;2024-01-15T05:38:19;19.70;30.30
30148;DHT22;16960;49.404;8.248;2024-01-15T05:40:46;19.70;30.30
30148;DHT22;16960;49.404;8.248;2024-01-15T05:43:13;19.70;30.30
30148;DHT22;16960;49.404;8.248;2024-01-15T05:45:43;19.70;30.80
30148;DHT22;16960;49.404;8.248;2024-01-15T05:48:10;19.70;30.20
30148;DHT22;16960;49.404;8.248;2024-01-15T05:50:38;19.80;30.20
30148;DHT22;16960;49.404;8.248;2024-01-15T05:53:05;19.80;30.10
30148;DHT22;16960;49.404;8.248;2024-01-15T05:55:32;19.90;30.10
30148;DHT22;16960;49.404;8.248;2024-01-15T05:57:59;19.90;30.10
30148;DHT22;16960;49.404;8.248;2024-01-15T06:00:26;19.90;30.00
30148;DHT22;16960;49.404;8.248;2024-01-15T06:02:53;20.00;29.90
30148;DHT22;16960;49.404;8.248;2024-01-15T06:05:20;20.00;29.90
30148;DHT22;16960;49.404;8.248;2024-01-15T06:07:48;20.00;29.80
30148;DHT22;16960;49.404;8.248;2024-01-15T06:10:15;20.00;29.70
30148;DHT22;16960;49.404;8.248;2024-01-15T06:12:43;20.10;29.80
30148;DHT22;16960;49.404;8.248;2024-01-15T06:15:10;20.10;29.80
30148;DHT22;16960;49.404;8.248;2024-01-15T06:17:37;20.10;29.80
30148;DHT22;16960;49.404;8.248;2024-01-15T06:20:05;20.10;29.80
30148;DHT22;16960;49.404;8.248;2024-01-15T06:22:32;20.10;29.60
30148;DHT22;16960;49.404;8.248;2024-01-15T06:25:00;20.10;29.60
30148;DHT22;16960;49.404;8.248;2024-01-15T06:27:28;20.20;29.30
30148;DHT22;16960;49.404;8.248;2024-01-15T06:29:55;20.20;29.30
30148;DHT22;16960;49.404;8.248;2024-01-15T06:32:22;20.20;29.30
30148;DHT22;16960;49.404;8.248;2024-01-15T06:34:49;20.10;29.20
30148;DHT22;16960;49.404;8.248;2024-01-15T06:37:16;20.10;29.70
30148;DHT22;16960;49.404;8.248;2024-01-15T06:39:44;20.10;29.10
30148;DHT22;16960;49.404;8.248;2024-01-15T06:42:12;20.10;29.10
30148;DHT22;16960;49.404;8.248;2024-01-15T06:44:39;20.10;29.00
30148;DHT22;16960;49.404;8.248;2024-01-15T06:47:06;20.10;28.90
30148;DHT22;16960;49.404;8.248;2024-01-15T06:49:33;20.10;28.80
30148;DHT22;16960;49.404;8.248;2024-01-15T06:52:00;20.10;28.70
30148;DHT22;16960;49.404;8.248;2024-01-15T06:54:27;20.10;28.70
30148;DHT22;16960;49.404;8.248;2024-01-15T06:56:54;20.10;28.80
30148;DHT22;16960;49.404;8.248;2024-01-15T06:59:22;20.10;28.80
30148;DHT22;16960;49.404;8.248;2024-01-15T07:01:49;20.10;28.80
30148;DHT22;16960;49.404;8.248;2024-01-15T07:04:16;20.10;29.00
30148;DHT22;16960;49.404;8.248;2024-01-15T07:06:43;20.10;29.00
30148;DHT22;16960;49.404;8.248;2024-01-15T07:09:10;20.10;29.10
30148;DHT22;16960;49.404;8.248;2024-01-15T07:11:37;20.10;29.30
30148;DHT22;16960;49.404;8.248;2024-01-15T07:14:04;20.10;29.40
30148;DHT22;16960;49.404;8.248;2024-01-15T07:16:32;20.10;29.30
30148;DHT22;16960;49.404;8.248;2024-01-15T07:18:59;20.20;29.20
30148;DHT22;16960;49.404;8.248;2024-01-15T07:21:26;20.20;29.30
30148;DHT22;16960;49.404;8.248;2024-01-15T07:23:53;20.20;29.30
30148;DHT22;16960;49.404;8.248;2024-01-15T07:26:20;20.30;29.40
30148;DHT22;16960;49.404;8.248;2024-01-15T07:28:47;20.30;29.40
30148;DHT22;16960;49.404;8.248;2024-01-15T07:31:15;20.30;29.30
30148;DHT22;16960;49.404;8.248;2024-01-15T07:33:43;20.40;29.20
30148;DHT22;16960;49.404;8.248;2024-01-15T07:36:11;20.40;29.10
30148;DHT22;16960;49.404;8.248;2024-01-15T07:38:38;20.50;29.20
30148;DHT22;16960;49.404;8.248;2024-01-15T07:41:05;20.50;29.10
30148;DHT22;16960;49.404;8.248;2024-01-15T07:43:32;20.50;29.00
30148;DHT22;16960;49.404;8.248;2024-01-15T07:45:59;20.50;28.90
30148;DHT22;16960;49.404;8.248;2024-01-15T07:48:27;20.60;28.80
30148;DHT22;16960;49.404;8.248;2024-01-15T07:50:55;20.60;28.80
30148;DHT22;16960;49.404;8.248;2024-01-15T07:53:22;20.60;28.70
30148;DHT22;16960;49.404;8.248;2024-01-15T07:55:49;20.60;28.60
30148;DHT22;16960;49.404;8.248;2024-01-15T07:58:16;20.60;28.50
30148;DHT22;16960;49.404;8.248;2024-01-15T08:00:43;20.60;28.50
30148;DHT22;16960;49.404;8.248;2024-01-15T08:03:10;20.60;28.40
30148;DHT22;16960;49.404;8.248;2024-01-15T08:05:37;20.70;28.50
30148;DHT22;16960;49.404;8.248;2024-01-15T08:08:06;20.70;28.50
30148;DHT22;16960;49.404;8.248;2024-01-15T08:10:33;20.60;28.40
30148;DHT22;16960;49.404;8.248;2024-01-15T08:13:00;20.70;28.50
30148;DHT22;16960;49.404;8.248;2024-01-15T08:15:27;20.70;28.40
30148;DHT22;16960;49.404;8.248;2024-01-15T08:17:54;20.70;28.50
30148;DHT22;16960;49.404;8.248;2024-01-15T08:20:21;20.70;28.40
30148;DHT22;16960;49.404;8.248;2024-01-15T08:22:47;20.70;28.40
30148;DHT22;16960;49.404;8.248;2024-01-15T08:25:16;20.70;28.40
30148;DHT22;16960;49.404;8.248;2024-01-15T08:27:43;20.70;28.40
30148;DHT22;16960;49.404;8.248;2024-01-15T08:30:11;20.70;28.40
30148;DHT22;16960;49.404;8.248;2024-01-15T08:32:38;20.80;28.30
30148;DHT22;16960;49.404;8.248;2024-01-15T08:35:07;20.80;28.40
30148;DHT22;16960;49.404;8.248;2024-01-15T08:37:34;20.80;28.30
30148;DHT22;16960;49.404;8.248;2024-01-15T08:40:01;20.80;28.30
30148;DHT22;16960;49.404;8.248;2024-01-15T08:42:32;20.80;28.30
30148;DHT22;16960;49.404;8.248;2024-01-15T08:44:58;20.80;28.30
30148;DHT22;16960;49.404;8.248;2024-01-15T08:47:26;20.80;28.30
30148;DHT22;16960;49.404;8.248;2024-01-15T08:49:53;20.90;28.40
30148;DHT22;16960;49.404;8.248;2024-01-15T08:52:20;20.90;28.40
30148;DHT22;16960;49.404;8.248;2024-01-15T08:54:47;20.90;28.40
30148;DHT22;16960;49.404;8.248;2024-01-15T08:57:14;20.90;28.30
30148;DHT22;16960;49.404;8.248;2024-01-15T08:59:42;20.90;28.30
30148;DHT22;16960;49.404;8.248;2024-01-15T09:02:10;20.90;28.20
30148;DHT22;16960;49.404;8.248;2024-01-15T09:04:37;20.90;28.20
30148;DHT22;16960;49.404;8.248;2024-01-15T09:07:04;20.90;28.30
30148;DHT22;16960;49.404;8.248;2024-01-15T09:09:31;21.00;28.20
30148;DHT22;16960;49.404;8.248;2024-01-15T09:11:58;21.00;28.30
30148;DHT22;16960;49.404;8.248;2024-01-15T09:14:25;21.00;28.30
30148;DHT22;16960;49.404;8.248;2024-01-15T09:16:54;21.00;28.30
30148;DHT22;16960;49.404;8.248;2024-01-15T09:19:21;21.00;28.20
30148;DHT22;16960;49.404;8.248;2024-01-15T09:21:48;21.00;28.30
30148;DHT22;16960;49.404;8.248;2024-01-15T09:24:15;21.00;28.40
30148;DHT22;16960;49.404;8.248;2024-01-15T09:26:42;21.10;28.40
30148;DHT22;16960;49.404;8.248;2024-01-15T09:29:10;21.10;28.40
30148;DHT22;16960;49.404;8.248;2024-01-15T09:31:37;21.10;28.30
30148;DHT22;16960;49.404;8.248;2024-01-15T09:34:05;21.10;28.30
30148;DHT22;16960;49.404;8.248;2024-01-15T09:36:32;21.10;28.30
30148;DHT22;16960;49.404;8.248;2024-01-15T09:38:59;21.10;28.30
30148;DHT22;16960;49.404;8.248;2024-01-15T09:41:26;21.20;28.30
30148;DHT22;16960;49.404;8.248;2024-01-15T09:43:54;21.20;28.40
30148;DHT22;16960;49.404;8.248;2024-01-15T09:46:21;21.20;28.50
30148;DHT22;16960;49.404;8.248;2024-01-15T09:48:48;21.20;28.40
30148;DHT22;16960;49.404;8.248;2024-01-15T09:51:16;21.20;28.50
30148;DHT22;16960;49.404;8.248;2024-01-15T09:53:45;21.20;28.50
30148;DHT22;16960;49.404;8.248;2024-01-15T09:56:13;21.20;28.60
30148;DHT22;16960;49.404;8.248;2024-01-15T09:58:41;21.20;28.60
30148;DHT22;16960;49.404;8.248;2024-01-15T10:01:10;21.20;28.60
30148;DHT22;16960;49.404;8.248;2024-01-15T10:03:38;21.20;28.60
30148;DHT22;16960;49.404;8.248;2024-01-15T10:06:08;21.20;28.60
30148;DHT22;16960;49.404;8.248;2024-01-15T10:08:36;21.20;28.60
30148;DHT22;16960;49.404;8.248;2024-01-15T10:11:05;21.20;28.60
30148;DHT22;16960;49.404;8.248;2024-01-15T10:13:32;21.20;28.50
30148;DHT22;16960;49.404;8.248;2024-01-15T10:16:00;21.30;28.50
30148;DHT22;16960;49.404;8.248;2024-01-15T10:18:28;21.30;28.60
30148;DHT22;16960;49.404;8.248;2024-01-15T10:20:56;21.30;28.60
30148;DHT22;16960;49.404;8.248;2024-01-15T10:23:23;21.30;28.50
30148;DHT22;16960;49.404;8.248;2024-01-15T10:25:52;21.30;28.50
30148;DHT22;16960;49.404;8.248;2024-01-15T10:28:19;21.30;28.60
30148;DHT22;16960;49.404;8.248;2024-01-15T10:30:46;21.30;28.50
30148;DHT22;16960;49.404;8.248;2024-01-15T10:33:13;21.30;28.60
30148;DHT22;16960;49.404;8.248;2024-01-15T10:35:41;21.40;28.60
30148;DHT22;16960;49.404;8.248;2024-01-15T10:38:08;21.40;28.60
30148;DHT22;16960;49.404;8.248;2024-01-15T10:40:35;21.40;28.60
30148;DHT22;16960;49.404;8.248;2024-01-15T10:43:03;21.40;28.60
30148;DHT22;16960;49.404;8.248;2024-01-15T10:45:30;21.40;28.60
30148;DHT22;16960;49.404;8.248;2024-01-15T10:47:57;21.50;28.70
30148;DHT22;16960;49.404;8.248;2024-01-15T10:50:26;21.50;28.80
30148;DHT22;16960;49.404;8.248;2024-01-15T10:52:53;21.50;28.80
30148;DHT22;16960;49.404;8.248;2024-01-15T10:55:20;21.50;28.80
30148;DHT22;16960;49.404;8.248;2024-01-15T10:57:48;21.50;28.80
30148;DHT22;16960;49.404;8.248;2024-01-15T11:00:17;21.50;28.70
30148;DHT22;16960;49.404;8.248;2024-01-15T11:02:45;21.50;28.80
30148;DHT22;16960;49.404;8.248;2024-01-15T11:05:12;21.50;28.80
30148;DHT22;16960;49.404;8.248;2024-01-15T11:07:39;21.50;28.80
30148;DHT22;16960;49.404;8.248;2024-01-15T11:10:08;21.50;28.80
30148;DHT22;16960;49.404;8.248;2024-01-15T11:12:35;21.50;28.80
30148;DHT22;16960;49.404;8.248;2024-01-15T11:15:04;21.50;29.00
30148;DHT22;16960;49.404;8.248;2024-01-15T11:18:00;21.50;28.80
30148;DHT22;16960;49.404;8.248;2024-01-15T11:20:28;21.50;28.70
30148;DHT22;16960;49.404;8.248;2024-01-15T11:22:56;21.60;28.70
30148;DHT22;16960;49.404;8.248;2024-01-15T11:25:34;21.60;28.80
30148;DHT22;16960;49.404;8.248;2024-01-15T11:28:03;21.60;28.80
30148;DHT22;16960;49.404;8.248;2024-01-15T11:30:30;21.60;28.70
30148;DHT22;16960;49.404;8.248;2024-01-15T11:33:03;21.60;28.70
30148;DHT22;16960;49.404;8.248;2024-01-15T11:35:47;21.60;28.60
30148;DHT22;16960;49.404;8.248;2024-01-15T11:38:26;21.50;28.70
30148;DHT22;16960;49.404;8.248;2024-01-15T11:40:54;21.50;28.60
30148;DHT22;16960;49.404;8.248;2024-01-15T11:43:21;21.50;28.70
30148;DHT22;16960;49.404;8.248;2024-01-15T11:45:52;21.50;28.70
30148;DHT22;16960;49.404;8.248;2024-01-15T11:48:20;21.50;28.70
30148;DHT22;16960;49.404;8.248;2024-01-15T11:50:50;21.50;28.70
30148;DHT22;16960;49.404;8.248;2024-01-15T11:53:27;21.50;28.60
30148;DHT22;16960;49.404;8.248;2024-01-15T11:55:58;21.50;28.60
30148;DHT22;16960;49.404;8.248;2024-01-15T11:58:25;21.50;28.60
30148;DHT22;16960;49.404;8.248;2024-01-15T12:00:52;21.50;28.60
30148;DHT22;16960;49.404;8.248;2024-01-15T12:03:22;21.50;28.60
30148;DHT22;16960;49.404;8.248;2024-01-15T12:05:49;21.50;28.60
30148;DHT22;16960;49.404;8.248;2024-01-15T12:08:21;21.50;28.70
30148;DHT22;16960;49.404;8.248;2024-01-15T12:10:48;21.50;28.80
30148;DHT22;16960;49.404;8.248;2024-01-15T12:13:15;21.50;28.80
30148;DHT22;16960;49.404;8.248;2024-01-15T12:15:44;21.50;28.80
30148;DHT22;16960;49.404;8.248;2024-01-15T12:18:12;21.50;28.90
30148;DHT22;16960;49.404;8.248;2024-01-15T12:20:42;21.50;28.80
30148;DHT22;16960;49.404;8.248;2024-01-15T12:23:09;21.50;28.80
30148;DHT22;16960;49.404;8.248;2024-01-15T12:25:36;21.50;28.80
30148;DHT22;16960;49.404;8.248;2024-01-15T12:28:05;21.50;28.80
30148;DHT22;16960;49.404;8.248;2024-01-15T12:30:33;21.50;28.70
30148;DHT22;16960;49.404;8.248;2024-01-15T12:33:01;21.60;28.70
30148;DHT22;16960;49.404;8.248;2024-01-15T12:35:29;21.60;28.70
30148;DHT22;16960;49.404;8.248;2024-01-15T12:38:00;21.60;28.70
30148;DHT22;16960;49.404;8.248;2024-01-15T12:40:27;21.60;28.70
30148;DHT22;16960;49.404;8.248;2024-01-15T12:42:55;21.60;28.70
30148;DHT22;16960;49.404;8.248;2024-01-15T12:45:22;21.60;28.70
30148;DHT22;16960;49.404;8.248;2024-01-15T12:47:49;21.70;28.80
30148;DHT22;16960;49.404;8.248;2024-01-15T12:50:17;21.60;28.70
30148;DHT22;16960;49.404;8.248;2024-01-15T12:52:44;21.70;28.80
30148;DHT22;16960;49.404;8.248;2024-01-15T12:55:13;21.70;28.90
30148;DHT22;16960;49.404;8.248;2024-01-15T12:57:40;21.70;28.80
30148;DHT22;16960;49.404;8.248;2024-01-15T13:00:07;21.70;28.70
30148;DHT22;16960;49.404;8.248;2024-01-15T13:02:37;21.70;28.70
30148;DHT22;16960;49.404;8.248;2024-01-15T13:05:06;21.70;28.60
30148;DHT22;16960;49.404;8.248;2024-01-15T13:07:34;21.70;28.70
30148;DHT22;16960;49.404;8.248;2024-01-15T13:10:01;21.70;28.80
30148;DHT22;16960;49.404;8.248;2024-01-15T13:12:29;21.60;28.80
30148;DHT22;16960;49.404;8.248;2024-01-15T13:14:58;21.70;28.90
30148;DHT22;16960;49.404;8.248;2024-01-15T13:17:25;21.70;29.00
30148;DHT22;16960;49.404;8.248;2024-01-15T13:19:52;21.70;28.90
30148;DHT22;16960;49.404;8.248;2024-01-15T13:22:19;21.70;28.90
30148;DHT22;16960;49.404;8.248;2024-01-15T13:24:45;21.70;28.90
30148;DHT22;16960;49.404;8.248;2024-01-15T13:27:12;21.80;28.90
30148;DHT22;16960;49.404;8.248;2024-01-15T13:29:41;21.70;28.80
30148;DHT22;16960;49.404;8.248;2024-01-15T13:32:09;21.80;28.80
30148;DHT22;16960;49.404;8.248;2024-01-15T13:34:38;21.80;28.80
30148;DHT22;16960;49.404;8.248;2024-01-15T13:37:05;21.80;28.80
30148;DHT22;16960;49.404;8.248;2024-01-15T13:39:35;21.70;28.80
30148;DHT22;16960;49.404;8.248;2024-01-15T13:42:02;21.80;28.80
30148;DHT22;16960;49.404;8.248;2024-01-15T13:44:29;21.80;28.80
30148;DHT22;16960;49.404;8.248;2024-01-15T13:46:58;21.80;28.90
30148;DHT22;16960;49.404;8.248;2024-01-15T13:49:25;21.80;28.90
30148;DHT22;16960;49.404;8.248;2024-01-15T13:51:52;21.70;28.90
30148;DHT22;16960;49.404;8.248;2024-01-15T13:54:19;21.70;28.90
30148;DHT22;16960;49.404;8.248;2024-01-15T13:56:47;21.70;28.90
30148;DHT22;16960;49.404;8.248;2024-01-15T13:59:15;21.70;28.90
30148;DHT22;16960;49.404;8.248;2024-01-15T14:01:42;21.80;28.90
30148;DHT22;16960;49.404;8.248;2024-01-15T14:04:11;21.70;28.80
30148;DHT22;16960;49.404;8.248;2024-01-15T14:06:37;21.70;28.90
30148;DHT22;16960;49.404;8.248;2024-01-15T14:09:04;21.70;28.90
30148;DHT22;16960;49.404;8.248;2024-01-15T14:11:35;21.70;29.00
30148;DHT22;16960;49.404;8.248;2024-01-15T14:14:02;21.70;29.00
30148;DHT22;16960;49.404;8.248;2024-01-15T14:16:29;21.70;29.00
30148;DHT22;16960;49.404;8.248;2024-01-15T14:18:56;21.70;29.00
30148;DHT22;16960;49.404;8.248;2024-01-15T14:21:24;21.70;29.00
30148;DHT22;16960;49.404;8.248;2024-01-15T14:23:51;21.60;28.90
30148;DHT22;16960;49.404;8.248;2024-01-15T14:26:18;21.70;29.00
30148;DHT22;16960;49.404;8.248;2024-01-15T14:28:45;21.70;29.00
30148;DHT22;16960;49.404;8.248;2024-01-15T14:31:13;21.70;28.90
30148;DHT22;16960;49.404;8.248;2024-01-15T14:33:40;21.70;28.90
30148;DHT22;16960;49.404;8.248;2024-01-15T14:36:07;21.60;29.10
30148;DHT22;16960;49.404;8.248;2024-01-15T14:38:36;21.70;28.90
30148;DHT22;16960;49.404;8.248;2024-01-15T14:41:03;21.60;28.70
30148;DHT22;16960;49.404;8.248;2024-01-15T14:43:30;21.60;28.80
30148;DHT22;16960;49.404;8.248;2024-01-15T14:45:58;21.70;28.90
30148;DHT22;16960;49.404;8.248;2024-01-15T14:48:25;21.70;28.90
30148;DHT22;16960;49.404;8.248;2024-01-15T14:50:52;21.60;28.90
30148;DHT22;16960;49.404;8.248;2024-01-15T14:53:19;21.70;28.90
30148;DHT22;16960;49.404;8.248;2024-01-15T14:55:48;21.60;28.80
30148;DHT22;16960;49.404;8.248;2024-01-15T14:58:15;21.60;28.80
30148;DHT22;16960;49.404;8.248;2024-01-15T15:00:42;21.60;28.90
30148;DHT22;16960;49.404;8.248;2024-01-15T15:03:09;21.60;28.90
30148;DHT22;16960;49.404;8.248;2024-01-15T15:05:36;21.60;28.90
30148;DHT22;16960;49.404;8.248;2024-01-15T15:08:03;21.60;28.90
30148;DHT22;16960;49.404;8.248;2024-01-15T15:10:34;21.60;29.00
30148;DHT22;16960;49.404;8.248;2024-01-15T15:13:02;21.70;29.10
30148;DHT22;16960;49.404;8.248;2024-01-15T15:15:29;21.70;29.10
30148;DHT22;16960;49.404;8.248;2024-01-15T15:17:56;21.70;29.10
30148;DHT22;16960;49.404;8.248;2024-01-15T15:20:23;21.70;29.00
30148;DHT22;16960;49.404;8.248;2024-01-15T15:22:50;21.70;29.00
30148;DHT22;16960;49.404;8.248;2024-01-15T15:25:20;21.70;29.10
30148;DHT22;16960;49.404;8.248;2024-01-15T15:27:47;21.70;29.10
30148;DHT22;16960;49.404;8.248;2024-01-15T15:30:16;21.70;29.10
30148;DHT22;16960;49.404;8.248;2024-01-15T15:32:43;21.70;29.00